sensor_id;sensor_type;location;lat;lon;timestamp;temperature;humidity
13854;DHT22;6997;51.782;8.824;2022-07-21T00:02:13;19.10;99.90
13854;DHT22;6997;51.782;8.824;2022-07-21T00:07:06;19.50;99.90
13854;DHT22;6997;51.782;8.824;2022-07-21T00:09:32;19.50;99.90
13854;DHT22;6997;51.782;8.824;2022-07-21T00:12:01;19.50;99.90
13854;DHT22;6997;51.782;8.824;2022-07-21T00:14:28;19.60;99.90
13854;DHT22;6997;51.782;8.824;2022-07-21T00:16:54;19.60;99.90
13854;DHT22;6997;51.782;8.824;2022-07-21T00:19:19;19.70;99.90
13854;DHT22;6997;51.782;8.824;2022-07-21T00:21:45;19.90;99.90
13854;DHT22;6997;51.782;8.824;2022-07-21T00:24:11;19.70;99.90
13854;DHT22;6997;51.782;8.824;2022-07-21T00:26:36;19.80;99.90
13854;DHT22;6997;51.782;8.824;2022-07-21T00:29:02;20.00;99.90
13854;DHT22;6997;51.782;8.824;2022-07-21T00:31:27;20.00;99.90
13854;DHT22;6997;51.782;8.824;2022-07-21T00:36:20;19.60;99.90
13854;DHT22;6997;51.782;8.824;2022-07-21T00:38:47;19.80;99.90
13854;DHT22;6997;51.782;8.824;2022-07-21T00:41:13;19.60;99.90
13854;DHT22;6997;51.782;8.824;2022-07-21T00:43:39;19.50;99.90
13854;DHT22;6997;51.782;8.824;2022-07-21T00:46:05;19.80;99.90
13854;DHT22;6997;51.782;8.824;2022-07-21T00:50:57;19.90;99.90
13854;DHT22;6997;51.782;8.824;2022-07-21T00:53:22;20.10;99.90
13854;DHT22;6997;51.782;8.824;2022-07-21T00:55:48;20.10;99.90
13854;DHT22;6997;51.782;8.824;2022-07-21T00:58:14;20.10;99.90
13854;DHT22;6997;51.782;8.824;2022-07-21T01:00:40;20.20;99.90
13854;DHT22;6997;51.782;8.824;2022-07-21T01:03:07;20.20;99.90
13854;DHT22;6997;51.782;8.824;2022-07-21T01:07:59;20.20;99.90
13854;DHT22;6997;51.782;8.824;2022-07-21T01:10:28;20.30;99.90
13854;DHT22;6997;51.782;8.824;2022-07-21T01:12:55;20.20;99.90
13854;DHT22;6997;51.782;8.824;2022-07-21T01:15:22;20.00;99.90
13854;DHT22;6997;51.782;8.824;2022-07-21T01:17:48;20.00;99.90
13854;DHT22;6997;51.782;8.824;2022-07-21T01:20:18;20.00;99.90
13854;DHT22;6997;51.782;8.824;2022-07-21T01:25:12;19.40;99.90
13854;DHT22;6997;51.782;8.824;2022-07-21T01:27:38;19.30;99.90
13854;DHT22;6997;51.782;8.824;2022-07-21T01:30:05;19.50;99.90
13854;DHT22;6997;51.782;8.824;2022-07-21T01:32:34;19.80;99.90
13854;DHT22;6997;51.782;8.824;2022-07-21T01:39:54;19.80;99.90
13854;DHT22;6997;51.782;8.824;2022-07-21T01:42:38;19.80;99.90
13854;DHT22;6997;51.782;8.824;2022-07-21T01:45:04;19.90;99.90
13854;DHT22;6997;51.782;8.824;2022-07-21T01:47:31;19.70;99.90
13854;DHT22;6997;51.782;8.824;2022-07-21T01:49:57;19.40;99.90
13854;DHT22;6997;51.782;8.824;2022-07-21T01:52:23;19.30;99.90
13854;DHT22;6997;51.782;8.824;2022-07-21T01:59:41;19.60;99.90
13854;DHT22;6997;51.782;8.824;2022-07-21T02:04:33;19.20;99.90
13854;DHT22;6997;51.782;8.824;2022-07-21T02:07:00;19.10;99.90
13854;DHT22;6997;51.782;8.824;2022-07-21T02:09:25;19.30;99.90
13854;DHT22;6997;51.782;8.824;2022-07-21T02:11:51;19.30;99.90
13854;DHT22;6997;51.782;8.824;2022-07-21T02:14:17;19.50;99.90
13854;DHT22;6997;51.782;8.824;2022-07-21T02:24:01;19.40;99.90
13854;DHT22;6997;51.782;8.824;2022-07-21T02:26:27;19.20;99.90
13854;DHT22;6997;51.782;8.824;2022-07-21T02:28:53;19.30;99.90
13854;DHT22;6997;51.782;8.824;2022-07-21T02:31:19;19.40;99.90
13854;DHT22;6997;51.782;8.824;2022-07-21T02:33:45;19.60;99.90
13854;DHT22;6997;51.782;8.824;2022-07-21T02:36:10;19.60;99.90
13854;DHT22;6997;51.782;8.824;2022-07-21T02:38:36;19.70;99.90
13854;DHT22;6997;51.782;8.824;2022-07-21T02:43:28;19.40;99.90
13854;DHT22;6997;51.782;8.824;2022-07-21T02:45:53;19.10;99.90
13854;DHT22;6997;51.782;8.824;2022-07-21T02:48:19;19.10;99.90
13854;DHT22;6997;51.782;8.824;2022-07-21T02:55:39;19.10;99.90
13854;DHT22;6997;51.782;8.824;2022-07-21T02:58:20;19.10;99.90
13854;DHT22;6997;51.782;8.824;2022-07-21T03:03:16;19.20;99.90
13854;DHT22;6997;51.782;8.824;2022-07-21T03:05:42;19.20;99.90
13854;DHT22;6997;51.782;8.824;2022-07-21T03:08:09;19.20;99.90
13854;DHT22;6997;51.782;8.824;2022-07-21T03:13:02;19.20;99.90
13854;DHT22;6997;51.782;8.824;2022-07-21T03:15:28;19.20;99.90
13854;DHT22;6997;51.782;8.824;2022-07-21T03:17:55;19.10;99.90
13854;DHT22;6997;51.782;8.824;2022-07-21T03:20:25;19.10;99.90
13854;DHT22;6997;51.782;8.824;2022-07-21T03:22:51;19.30;99.90
13854;DHT22;6997;51.782;8.824;2022-07-21T03:25:18;19.30;99.90
13854;DHT22;6997;51.782;8.824;2022-07-21T03:30:12;19.20;99.90
13854;DHT22;6997;51.782;8.824;2022-07-21T03:32:38;19.10;99.90
13854;DHT22;6997;51.782;8.824;2022-07-21T03:37:31;19.00;99.90
13854;DHT22;6997;51.782;8.824;2022-07-21T03:39:56;19.00;99.90
13854;DHT22;6997;51.782;8.824;2022-07-21T03:42:22;18.80;99.90
13854;DHT22;6997;51.782;8.824;2022-07-21T03:44:48;18.80;99.90
13854;DHT22;6997;51.782;8.824;2022-07-21T03:47:13;18.70;99.90
13854;DHT22;6997;51.782;8.824;2022-07-21T03:49:39;18.70;99.90
13854;DHT22;6997;51.782;8.824;2022-07-21T03:52:05;18.60;99.90
13854;DHT22;6997;51.782;8.824;2022-07-21T03:54:30;18.60;99.90
13854;DHT22;6997;51.782;8.824;2022-07-21T03:56:56;18.40;99.90
13854;DHT22;6997;51.782;8.824;2022-07-21T03:59:21;18.40;99.90
13854;DHT22;6997;51.782;8.824;2022-07-21T04:01:47;18.40;99.90
13854;DHT22;6997;51.782;8.824;2022-07-21T04:04:13;18.30;99.90
13854;DHT22;6997;51.782;8.824;2022-07-21T04:06:39;18.30;99.90
13854;DHT22;6997;51.782;8.824;2022-07-21T04:09:05;18.40;99.90
13854;DHT22;6997;51.782;8.824;2022-07-21T04:11:30;18.20;99.90
13854;DHT22;6997;51.782;8.824;2022-07-21T04:13:57;18.30;99.90
13854;DHT22;6997;51.782;8.824;2022-07-21T04:18:49;18.20;99.90
13854;DHT22;6997;51.782;8.824;2022-07-21T04:21:15;18.20;99.90
13854;DHT22;6997;51.782;8.824;2022-07-21T04:23:41;18.20;99.90
13854;DHT22;6997;51.782;8.824;2022-07-21T04:28:32;18.00;99.90
13854;DHT22;6997;51.782;8.824;2022-07-21T04:30:58;18.00;99.90
13854;DHT22;6997;51.782;8.824;2022-07-21T04:33:23;18.00;99.90
13854;DHT22;6997;51.782;8.824;2022-07-21T04:38:15;18.30;99.90
13854;DHT22;6997;51.782;8.824;2022-07-21T04:43:06;18.20;99.90
13854;DHT22;6997;51.782;8.824;2022-07-21T04:45:32;18.40;99.90
13854;DHT22;6997;51.782;8.824;2022-07-21T04:47:58;18.50;99.90
13854;DHT22;6997;51.782;8.824;2022-07-21T04:52:52;18.70;99.90
13854;DHT22;6997;51.782;8.824;2022-07-21T04:55:18;18.80;99.90
13854;DHT22;6997;51.782;8.824;2022-07-21T05:02:44;18.80;99.90
13854;DHT22;6997;51.782;8.824;2022-07-21T05:05:10;18.70;99.90
13854;DHT22;6997;51.782;8.824;2022-07-21T05:07:36;18.70;99.90
13854;DHT22;6997;51.782;8.824;2022-07-21T05:10:09;18.90;99.90
13854;DHT22;6997;51.782;8.824;2022-07-21T05:15:05;19.20;99.90
13854;DHT22;6997;51.782;8.824;2022-07-21T05:22:24;19.20;99.90
13854;DHT22;6997;51.782;8.824;2022-07-21T05:24:50;19.10;99.90
13854;DHT22;6997;51.782;8.824;2022-07-21T05:27:16;19.20;99.90
13854;DHT22;6997;51.782;8.824;2022-07-21T05:29:42;19.10;99.90
13854;DHT22;6997;51.782;8.824;2022-07-21T05:32:07;19.10;99.90
13854;DHT22;6997;51.782;8.824;2022-07-21T05:34:33;19.10;99.90
13854;DHT22;6997;51.782;8.824;2022-07-21T05:36:58;18.80;99.90
13854;DHT22;6997;51.782;8.824;2022-07-21T05:39:24;19.00;99.90
13854;DHT22;6997;51.782;8.824;2022-07-21T05:41:50;19.00;99.90
13854;DHT22;6997;51.782;8.824;2022-07-21T05:44:16;18.90;99.90
13854;DHT22;6997;51.782;8.824;2022-07-21T05:49:07;18.80;99.90
13854;DHT22;6997;51.782;8.824;2022-07-21T05:51:33;18.80;99.90
13854;DHT22;6997;51.782;8.824;2022-07-21T05:56:24;18.80;99.90
13854;DHT22;6997;51.782;8.824;2022-07-21T05:58:50;18.70;99.90
13854;DHT22;6997;51.782;8.824;2022-07-21T06:01:15;18.80;99.90
13854;DHT22;6997;51.782;8.824;2022-07-21T06:03:49;18.70;99.90
13854;DHT22;6997;51.782;8.824;2022-07-21T06:08:43;18.80;99.90
13854;DHT22;6997;51.782;8.824;2022-07-21T06:11:10;18.90;99.90
13854;DHT22;6997;51.782;8.824;2022-07-21T06:16:03;18.80;99.90
13854;DHT22;6997;51.782;8.824;2022-07-21T06:18:29;18.80;99.90
13854;DHT22;6997;51.782;8.824;2022-07-21T06:20:54;19.00;99.90
13854;DHT22;6997;51.782;8.824;2022-07-21T06:23:20;19.20;99.90
13854;DHT22;6997;51.782;8.824;2022-07-21T06:25:46;19.20;99.90
13854;DHT22;6997;51.782;8.824;2022-07-21T06:33:04;19.10;99.90
13854;DHT22;6997;51.782;8.824;2022-07-21T06:40:23;19.30;99.90
13854;DHT22;6997;51.782;8.824;2022-07-21T06:42:49;19.30;99.90
13854;DHT22;6997;51.782;8.824;2022-07-21T06:45:15;19.30;99.90
13854;DHT22;6997;51.782;8.824;2022-07-21T06:47:41;19.30;99.90
13854;DHT22;6997;51.782;8.824;2022-07-21T06:50:08;19.30;99.90
13854;DHT22;6997;51.782;8.824;2022-07-21T06:55:03;19.00;99.90
13854;DHT22;6997;51.782;8.824;2022-07-21T06:57:29;19.00;99.90
13854;DHT22;6997;51.782;8.824;2022-07-21T06:59:54;18.80;99.90
13854;DHT22;6997;51.782;8.824;2022-07-21T07:02:21;18.90;99.90
13854;DHT22;6997;51.782;8.824;2022-07-21T07:04:47;19.00;99.90
13854;DHT22;6997;51.782;8.824;2022-07-21T07:09:39;19.00;99.90
13854;DHT22;6997;51.782;8.824;2022-07-21T07:12:07;19.20;99.90
13854;DHT22;6997;51.782;8.824;2022-07-21T07:17:03;19.30;99.90
13854;DHT22;6997;51.782;8.824;2022-07-21T07:19:29;19.30;99.90
13854;DHT22;6997;51.782;8.824;2022-07-21T07:21:55;19.50;99.90
13854;DHT22;6997;51.782;8.824;2022-07-21T07:24:21;19.60;99.90
13854;DHT22;6997;51.782;8.824;2022-07-21T07:26:47;19.80;99.90
13854;DHT22;6997;51.782;8.824;2022-07-21T07:29:14;19.90;99.90
13854;DHT22;6997;51.782;8.824;2022-07-21T07:31:40;20.90;99.90
13854;DHT22;6997;51.782;8.824;2022-07-21T07:34:06;20.00;99.90
13854;DHT22;6997;51.782;8.824;2022-07-21T07:36:32;19.60;99.90
13854;DHT22;6997;51.782;8.824;2022-07-21T07:38:59;19.70;99.90
13854;DHT22;6997;51.782;8.824;2022-07-21T07:41:26;19.60;99.90
13854;DHT22;6997;51.782;8.824;2022-07-21T07:46:18;19.40;99.90
13854;DHT22;6997;51.782;8.824;2022-07-21T07:48:44;19.30;99.90
13854;DHT22;6997;51.782;8.824;2022-07-21T07:51:11;19.20;99.90
13854;DHT22;6997;51.782;8.824;2022-07-21T07:53:38;19.30;99.90
13854;DHT22;6997;51.782;8.824;2022-07-21T07:56:04;19.20;99.90
13854;DHT22;6997;51.782;8.824;2022-07-21T08:00:56;19.60;99.90
13854;DHT22;6997;51.782;8.824;2022-07-21T08:03:23;19.70;99.90
13854;DHT22;6997;51.782;8.824;2022-07-21T08:05:49;19.80;99.90
13854;DHT22;6997;51.782;8.824;2022-07-21T08:08:16;19.90;99.90
13854;DHT22;6997;51.782;8.824;2022-07-21T08:10:42;20.20;99.90
13854;DHT22;6997;51.782;8.824;2022-07-21T08:13:09;20.20;99.90
13854;DHT22;6997;51.782;8.824;2022-07-21T08:18:02;20.20;99.90
13854;DHT22;6997;51.782;8.824;2022-07-21T08:20:28;20.20;99.90
13854;DHT22;6997;51.782;8.824;2022-07-21T08:22:54;20.30;99.90
13854;DHT22;6997;51.782;8.824;2022-07-21T08:25:20;20.40;99.90
13854;DHT22;6997;51.782;8.824;2022-07-21T08:30:12;20.80;99.90
13854;DHT22;6997;51.782;8.824;2022-07-21T08:35:07;21.10;99.90
13854;DHT22;6997;51.782;8.824;2022-07-21T08:40:07;20.90;99.90
13854;DHT22;6997;51.782;8.824;2022-07-21T08:44:59;20.60;99.90
13854;DHT22;6997;51.782;8.824;2022-07-21T08:49:53;20.70;99.90
13854;DHT22;6997;51.782;8.824;2022-07-21T08:52:19;20.70;99.90
13854;DHT22;6997;51.782;8.824;2022-07-21T08:54:44;20.80;99.90
13854;DHT22;6997;51.782;8.824;2022-07-21T08:57:10;20.90;99.90
13854;DHT22;6997;51.782;8.824;2022-07-21T09:02:02;21.10;99.90
13854;DHT22;6997;51.782;8.824;2022-07-21T09:04:34;21.20;99.90
13854;DHT22;6997;51.782;8.824;2022-07-21T09:07:05;21.20;99.90
13854;DHT22;6997;51.782;8.824;2022-07-21T09:09:33;21.20;99.90
13854;DHT22;6997;51.782;8.824;2022-07-21T09:12:00;21.20;99.90
13854;DHT22;6997;51.782;8.824;2022-07-21T09:21:54;21.50;99.90
13854;DHT22;6997;51.782;8.824;2022-07-21T09:29:46;22.50;99.90
13854;DHT22;6997;51.782;8.824;2022-07-21T09:34:58;22.30;99.90
13854;DHT22;6997;51.782;8.824;2022-07-21T09:37:24;22.30;99.90
13854;DHT22;6997;51.782;8.824;2022-07-21T09:44:52;22.00;99.90
13854;DHT22;6997;51.782;8.824;2022-07-21T09:47:21;21.90;99.90
13854;DHT22;6997;51.782;8.824;2022-07-21T09:49:47;22.00;99.90
13854;DHT22;6997;51.782;8.824;2022-07-21T09:54:45;22.10;99.90
13854;DHT22;6997;51.782;8.824;2022-07-21T09:57:11;22.20;99.90
13854;DHT22;6997;51.782;8.824;2022-07-21T09:59:39;21.80;99.90
13854;DHT22;6997;51.782;8.824;2022-07-21T10:02:04;21.80;99.90
13854;DHT22;6997;51.782;8.824;2022-07-21T10:04:32;21.80;99.90
13854;DHT22;6997;51.782;8.824;2022-07-21T10:09:27;22.10;99.90
13854;DHT22;6997;51.782;8.824;2022-07-21T10:11:54;22.20;99.90
13854;DHT22;6997;51.782;8.824;2022-07-21T10:14:20;22.20;99.90
13854;DHT22;6997;51.782;8.824;2022-07-21T10:16:46;22.30;99.90
13854;DHT22;6997;51.782;8.824;2022-07-21T10:24:39;22.50;99.90
13854;DHT22;6997;51.782;8.824;2022-07-21T10:27:11;22.40;99.90
13854;DHT22;6997;51.782;8.824;2022-07-21T10:32:17;22.40;99.90
13854;DHT22;6997;51.782;8.824;2022-07-21T10:34:44;22.60;99.90
13854;DHT22;6997;51.782;8.824;2022-07-21T10:39:39;22.90;99.90
13854;DHT22;6997;51.782;8.824;2022-07-21T10:42:15;23.10;99.90
13854;DHT22;6997;51.782;8.824;2022-07-21T10:44:46;23.20;99.90
13854;DHT22;6997;51.782;8.824;2022-07-21T10:47:13;23.30;99.90
13854;DHT22;6997;51.782;8.824;2022-07-21T11:00:44;23.60;99.90
13854;DHT22;6997;51.782;8.824;2022-07-21T11:03:18;23.40;99.90
13854;DHT22;6997;51.782;8.824;2022-07-21T11:11:25;23.20;99.90
13854;DHT22;6997;51.782;8.824;2022-07-21T11:14:11;23.60;99.90
13854;DHT22;6997;51.782;8.824;2022-07-21T11:19:30;23.60;99.90
13854;DHT22;6997;51.782;8.824;2022-07-21T11:21:59;23.90;99.90
13854;DHT22;6997;51.782;8.824;2022-07-21T11:24:26;23.90;99.90
13854;DHT22;6997;51.782;8.824;2022-07-21T11:29:22;23.70;99.90
13854;DHT22;6997;51.782;8.824;2022-07-21T11:31:48;24.00;99.90
13854;DHT22;6997;51.782;8.824;2022-07-21T11:34:14;24.10;99.90
13854;DHT22;6997;51.782;8.824;2022-07-21T11:36:40;24.10;99.90
13854;DHT22;6997;51.782;8.824;2022-07-21T11:39:12;24.00;99.90
13854;DHT22;6997;51.782;8.824;2022-07-21T11:41:39;24.20;99.90
13854;DHT22;6997;51.782;8.824;2022-07-21T11:49:11;24.80;99.90
13854;DHT22;6997;51.782;8.824;2022-07-21T11:54:03;25.10;99.90
13854;DHT22;6997;51.782;8.824;2022-07-21T11:56:36;25.30;99.90
13854;DHT22;6997;51.782;8.824;2022-07-21T11:59:10;25.30;99.90
13854;DHT22;6997;51.782;8.824;2022-07-21T12:01:49;24.90;99.90
13854;DHT22;6997;51.782;8.824;2022-07-21T12:04:26;24.90;99.90
13854;DHT22;6997;51.782;8.824;2022-07-21T12:06:51;24.70;99.90
13854;DHT22;6997;51.782;8.824;2022-07-21T12:09:18;24.40;99.90
13854;DHT22;6997;51.782;8.824;2022-07-21T12:11:44;24.50;99.90
13854;DHT22;6997;51.782;8.824;2022-07-21T12:14:09;24.60;99.90
13854;DHT22;6997;51.782;8.824;2022-07-21T12:16:50;24.80;99.90
13854;DHT22;6997;51.782;8.824;2022-07-21T12:19:17;25.10;99.90
13854;DHT22;6997;51.782;8.824;2022-07-21T12:21:47;25.20;99.90
13854;DHT22;6997;51.782;8.824;2022-07-21T12:24:17;25.10;99.90
13854;DHT22;6997;51.782;8.824;2022-07-21T12:26:45;25.40;99.90
13854;DHT22;6997;51.782;8.824;2022-07-21T12:31:50;25.70;99.90
13854;DHT22;6997;51.782;8.824;2022-07-21T12:34:16;25.50;99.90
13854;DHT22;6997;51.782;8.824;2022-07-21T12:36:45;25.10;99.90
13854;DHT22;6997;51.782;8.824;2022-07-21T12:42:05;24.60;99.90
13854;DHT22;6997;51.782;8.824;2022-07-21T12:44:32;24.40;99.90
13854;DHT22;6997;51.782;8.824;2022-07-21T12:47:16;24.40;99.90
13854;DHT22;6997;51.782;8.824;2022-07-21T12:50:03;24.00;99.90
13854;DHT22;6997;51.782;8.824;2022-07-21T12:52:29;24.00;99.90
13854;DHT22;6997;51.782;8.824;2022-07-21T12:57:24;24.00;99.90
13854;DHT22;6997;51.782;8.824;2022-07-21T13:02:16;24.00;99.90
13854;DHT22;6997;51.782;8.824;2022-07-21T13:04:42;24.00;99.90
13854;DHT22;6997;51.782;8.824;2022-07-21T14:57:59;24.20;99.90
13854;DHT22;6997;51.782;8.824;2022-07-21T15:00:25;23.40;99.90
13854;DHT22;6997;51.782;8.824;2022-07-21T15:02:52;23.40;99.90
13854;DHT22;6997;51.782;8.824;2022-07-21T15:05:21;23.30;99.90
13854;DHT22;6997;51.782;8.824;2022-07-21T15:07:48;23.40;99.90
13854;DHT22;6997;51.782;8.824;2022-07-21T15:10:15;23.00;99.90
13854;DHT22;6997;51.782;8.824;2022-07-21T16:32:10;20.30;99.90
13854;DHT22;6997;51.782;8.824;2022-07-21T16:34:37;20.20;99.90
13854;DHT22;6997;51.782;8.824;2022-07-21T16:37:07;20.30;99.90
13854;DHT22;6997;51.782;8.824;2022-07-21T16:39:36;20.30;99.90
13854;DHT22;6997;51.782;8.824;2022-07-21T16:46:57;20.00;99.90
13854;DHT22;6997;51.782;8.824;2022-07-21T16:54:18;20.20;99.90
13854;DHT22;6997;51.782;8.824;2022-07-21T19:55:19;18.30;99.90
13854;DHT22;6997;51.782;8.824;2022-07-21T20:07:16;18.30;99.90
13854;DHT22;6997;51.782;8.824;2022-07-21T21:02:23;17.90;99.90
13854;DHT22;6997;51.782;8.824;2022-07-21T21:07:16;17.90;99.90
13854;DHT22;6997;51.782;8.824;2022-07-21T21:09:43;17.90;99.90
13854;DHT22;6997;51.782;8.824;2022-07-21T21:15:35;17.80;99.90
13854;DHT22;6997;51.782;8.824;2022-07-21T21:18:01;17.70;99.90
13854;DHT22;6997;51.782;8.824;2022-07-21T21:20:29;17.70;99.90
13854;DHT22;6997;51.782;8.824;2022-07-21T21:22:56;17.80;99.90
13854;DHT22;6997;51.782;8.824;2022-07-21T21:25:23;17.80;99.90
13854;DHT22;6997;51.782;8.824;2022-07-21T21:27:51;17.60;99.90
13854;DHT22;6997;51.782;8.824;2022-07-21T21:42:34;17.60;99.90
13854;DHT22;6997;51.782;8.824;2022-07-21T21:45:02;17.70;99.90
13854;DHT22;6997;51.782;8.824;2022-07-21T21:47:28;17.70;99.90
13854;DHT22;6997;51.782;8.824;2022-07-21T21:49:55;17.70;99.90
13854;DHT22;6997;51.782;8.824;2022-07-21T21:52:22;17.70;99.90
13854;DHT22;6997;51.782;8.824;2022-07-21T21:54:49;17.70;99.90
13854;DHT22;6997;51.782;8.824;2022-07-21T21:57:17;17.60;99.90
13854;DHT22;6997;51.782;8.824;2022-07-21T22:02:10;17.60;99.90
13854;DHT22;6997;51.782;8.824;2022-07-21T22:09:30;17.70;99.90
13854;DHT22;6997;51.782;8.824;2022-07-21T22:11:56;17.60;99.90
13854;DHT22;6997;51.782;8.824;2022-07-21T22:14:22;17.70;99.90
13854;DHT22;6997;51.782;8.824;2022-07-21T22:16:48;17.60;99.90
13854;DHT22;6997;51.782;8.824;2022-07-21T22:24:12;17.60;99.90
13854;DHT22;6997;51.782;8.824;2022-07-21T23:09:31;17.50;99.90
13854;DHT22;6997;51.782;8.824;2022-07-21T23:14:24;17.40;99.90
13854;DHT22;6997;51.782;8.824;2022-07-21T23:16:50;17.50;99.90
13854;DHT22;6997;51.782;8.824;2022-07-21T23:19:16;17.40;99.90
13854;DHT22;6997;51.782;8.824;2022-07-21T23:21:43;17.50;99.90
13854;DHT22;6997;51.782;8.824;2022-07-21T23:29:03;17.50;99.90
13854;DHT22;6997;51.782;8.824;2022-07-21T23:31:29;17.50;99.90
13854;DHT22;6997;51.782;8.824;2022-07-21T23:33:54;17.40;99.90
13854;DHT22;6997;51.782;8.824;2022-07-21T23:38:48;17.50;99.90
13854;DHT22;6997;51.782;8.824;2022-07-21T23:41:14;17.50;99.90
13854;DHT22;6997;51.782;8.824;2022-07-21T23:46:06;17.40;99.90
13854;DHT22;6997;51.782;8.824;2022-07-21T23:48:33;17.50;99.90
13854;DHT22;6997;51.782;8.824;2022-07-21T23:53:28;17.40;99.90
13854;DHT22;6997;51.782;8.824;2022-07-21T23:55:57;17.40;99.90
